Time;durP1;ratioP1;P1;durP2;ratioP2;P2;SDS_P1;SDS_P2;PMS_P1;PMS_P2;Temp;Humidity;BMP_temperature;BMP_pressure;BME280_temperature;BME280_humidity;BME280_pressure;Samples;Min_cycle;Max_cycle;Signal;HPM_P1;HPM_P2
2022/09/15 00:00:29;;;;;;;23.45;19.30;;;25.00;58.50;;;;;;4802277;54;21008;-27
2022/09/15 00:05:30;;;;;;;21.30;18.52;;;25.10;58.50;;;;;;4800750;54;21083;-30
2022/09/15 00:10:31;;;;;;;21.33;18.00;;;25.00;58.50;;;;;;4821139;54;21462;-34
2022/09/15 00:15:32;;;;;;;21.40;18.27;;;25.00;58.50;;;;;;4862582;54;21055;-27
2022/09/15 00:20:33;;;;;;;23.67;19.02;;;25.00;58.50;;;;;;4795525;58;21032;-30
2022/09/15 00:25:33;;;;;;;19.70;17.25;;;25.00;58.60;;;;;;4801993;54;21008;-26
2022/09/15 00:30:38;;;;;;;20.60;17.92;;;25.00;58.50;;;;;;4828097;54;21031;-31
2022/09/15 00:35:43;;;;;;;19.15;17.12;;;25.00;58.60;;;;;;4804695;54;21071;-27
2022/09/15 00:40:49;;;;;;;20.02;17.23;;;25.00;58.60;;;;;;4799904;54;21505;-26
2022/09/15 00:45:51;;;;;;;19.87;16.73;;;25.00;58.60;;;;;;4842852;54;20980;-33
2022/09/15 00:50:55;;;;;;;20.45;17.08;;;25.00;58.60;;;;;;4798293;54;22010;-26
2022/09/15 00:55:58;;;;;;;20.33;17.02;;;25.00;58.60;;;;;;4866040;54;21024;-31
2022/09/15 01:01:01;;;;;;;21.92;17.95;;;25.00;58.60;;;;;;4825487;54;21576;-32
2022/09/15 01:06:25;;;;;;;21.80;17.98;;;25.00;58.60;;;;;;4795798;58;20988;-27
2022/09/15 01:11:27;;;;;;;20.02;16.62;;;25.00;58.60;;;;;;4809941;54;21055;-28
2022/09/15 01:17:11;;;;;;;19.02;16.92;;;25.00;58.60;;;;;;4795028;58;21011;-31
2022/09/15 01:25:37;;;;;;;18.17;16.27;;;25.00;58.60;;;;;;4822704;54;21036;-29
2022/09/15 01:31:11;;;;;;;19.27;16.20;;;25.00;58.60;;;;;;4818822;54;21036;-27
2022/09/15 01:37:00;;;;;;;18.10;15.23;;;25.00;58.60;;;;;;4838661;54;21063;-35
2022/09/15 01:42:08;;;;;;;18.30;16.20;;;25.00;58.60;;;;;;4820850;54;21513;-32
2022/09/15 01:47:14;;;;;;;17.45;15.60;;;25.00;58.60;;;;;;4799223;54;20984;-36
2022/09/15 01:52:18;;;;;;;18.93;16.13;;;25.00;58.60;;;;;;4833774;54;21011;-26
2022/09/15 01:57:21;;;;;;;16.52;14.57;;;25.00;58.60;;;;;;4812986;54;21921;-29
2022/09/15 02:02:29;;;;;;;16.75;14.55;;;25.00;58.60;;;;;;4802805;54;21036;-30
2022/09/15 02:09:12;;;;;;;18.27;14.98;;;25.00;58.60;;;;;;4803536;54;20991;-28
2022/09/15 02:14:19;;;;;;;16.05;14.35;;;25.00;58.60;;;;;;4826962;54;21028;-27
2022/09/15 02:20:37;;;;;;;17.40;14.68;;;25.00;58.60;;;;;;4830587;54;21545;-34
2022/09/15 02:25:46;;;;;;;16.35;14.57;;;25.00;58.60;;;;;;4809385;54;21471;-28
2022/09/15 02:30:53;;;;;;;16.92;14.45;;;25.00;58.60;;;;;;4800072;54;20992;-33
2022/09/15 02:35:54;;;;;;;17.42;14.63;;;25.00;58.70;;;;;;4828864;54;21534;-27
2022/09/15 02:40:55;;;;;;;17.60;14.52;;;25.00;58.60;;;;;;4817083;54;21074;-31
2022/09/15 02:45:56;;;;;;;15.82;14.23;;;25.00;58.60;;;;;;4811026;54;22333;-27
2022/09/15 02:50:57;;;;;;;16.33;14.23;;;25.00;58.60;;;;;;4811415;54;21019;-32
2022/09/15 02:55:58;;;;;;;15.70;13.95;;;25.00;58.60;;;;;;4828581;54;21632;-31
2022/09/15 03:01:04;;;;;;;15.57;13.90;;;25.00;58.60;;;;;;4821467;54;21696;-31
2022/09/15 03:06:18;;;;;;;17.08;14.00;;;25.00;58.60;;;;;;4827171;54;21043;-27
2022/09/15 03:11:21;;;;;;;15.73;13.77;;;25.00;58.60;;;;;;4826013;54;21024;-27
2022/09/15 03:16:22;;;;;;;15.00;13.25;;;25.00;58.60;;;;;;4900784;54;21071;-30
2022/09/15 03:21:23;;;;;;;14.87;13.27;;;25.00;58.70;;;;;;4833715;54;21075;-31
2022/09/15 03:26:25;;;;;;;14.65;13.07;;;25.00;58.60;;;;;;4811198;54;21135;-29
2022/09/15 03:31:25;;;;;;;14.95;13.13;;;25.00;58.70;;;;;;4797177;54;21115;-29
2022/09/15 03:36:26;;;;;;;15.90;13.25;;;25.00;58.70;;;;;;4811645;54;21470;-31
2022/09/15 03:41:28;;;;;;;15.43;13.80;;;25.00;58.70;;;;;;4795301;58;21016;-33
2022/09/15 03:46:29;;;;;;;14.63;12.63;;;25.00;58.70;;;;;;4807188;54;21522;-31
2022/09/15 03:51:30;;;;;;;13.35;11.95;;;25.00;58.70;;;;;;4830720;54;21016;-30
2022/09/15 03:56:31;;;;;;;13.77;12.07;;;25.00;58.80;;;;;;4794693;58;21023;-29
2022/09/15 04:01:33;;;;;;;14.00;12.60;;;25.00;58.70;;;;;;4813069;54;20984;-30
2022/09/15 04:06:34;;;;;;;14.85;11.98;;;25.00;58.70;;;;;;4837873;54;21056;-31
2022/09/15 04:11:36;;;;;;;14.20;12.13;;;25.00;58.70;;;;;;4828134;54;21019;-30
2022/09/15 04:16:37;;;;;;;12.52;11.23;;;25.00;58.80;;;;;;4803683;54;21565;-31
2022/09/15 04:21:38;;;;;;;13.75;11.60;;;24.90;58.40;;;;;;4803744;54;20999;-32
2022/09/15 04:26:39;;;;;;;14.40;11.70;;;25.00;58.80;;;;;;4796273;58;21581;-34
2022/09/15 04:31:40;;;;;;;12.65;11.25;;;25.00;59.40;;;;;;4831075;54;20996;-33
2022/09/15 04:36:42;;;;;;;13.00;10.93;;;24.90;58.70;;;;;;4799060;54;21186;-29
2022/09/15 04:41:44;;;;;;;13.52;11.65;;;24.90;58.70;;;;;;4835722;54;21588;-33
2022/09/15 04:46:44;;;;;;;14.75;11.73;;;25.00;58.80;;;;;;4801854;54;21059;-29
2022/09/15 04:51:45;;;;;;;12.15;10.73;;;24.90;58.70;;;;;;4826838;54;21064;-28
2022/09/15 04:56:47;;;;;;;11.73;10.52;;;24.90;58.70;;;;;;4817350;54;21035;-26
2022/09/15 05:01:52;;;;;;;12.48;10.60;;;24.90;58.70;;;;;;4795730;54;21546;-34
2022/09/15 05:06:53;;;;;;;11.02;9.93;;;24.90;58.70;;;;;;4796443;54;21071;-32
2022/09/15 05:11:54;;;;;;;11.73;10.52;;;24.90;58.70;;;;;;4847495;54;21537;-34
2022/09/15 05:16:54;;;;;;;11.75;10.52;;;24.90;58.70;;;;;;4801206;54;21083;-31
2022/09/15 05:21:55;;;;;;;11.90;10.70;;;24.90;58.70;;;;;;4846408;54;21047;-26
2022/09/15 05:26:56;;;;;;;12.70;9.98;;;24.90;58.70;;;;;;4804425;54;21004;-26
2022/09/15 05:31:57;;;;;;;10.95;9.82;;;24.90;58.70;;;;;;4795731;58;21498;-30
2022/09/15 05:36:57;;;;;;;12.18;9.73;;;24.90;58.60;;;;;;4818395;54;22236;-34
2022/09/15 05:41:58;;;;;;;11.32;10.13;;;24.90;59.20;;;;;;4798904;54;21596;-28
2022/09/15 05:46:59;;;;;;;12.68;10.02;;;24.90;58.60;;;;;;4806229;54;21466;-35
2022/09/15 05:52:00;;;;;;;11.73;10.27;;;24.90;58.60;;;;;;4794151;58;21019;-35
2022/09/15 05:57:01;;;;;;;11.35;10.20;;;24.90;59.30;;;;;;4800001;54;21047;-31
2022/09/15 06:02:02;;;;;;;12.37;10.23;;;24.90;58.60;;;;;;4801610;54;21060;-27
2022/09/15 06:07:03;;;;;;;12.88;10.23;;;24.90;58.70;;;;;;4800516;54;21012;-27
2022/09/15 06:12:04;;;;;;;11.32;9.85;;;24.90;58.60;;;;;;4841458;54;21008;-34
2022/09/15 06:17:05;;;;;;;11.75;10.55;;;24.90;58.60;;;;;;4800965;54;21478;-28
2022/09/15 06:22:06;;;;;;;11.80;10.15;;;24.90;58.60;;;;;;4834705;54;21059;-28
2022/09/15 06:27:07;;;;;;;12.70;10.07;;;24.90;58.60;;;;;;4831549;54;21087;-31
2022/09/15 06:32:07;;;;;;;11.65;10.13;;;24.90;58.70;;;;;;4814479;54;21032;-34
2022/09/15 06:37:08;;;;;;;11.95;10.23;;;24.90;58.70;;;;;;4814726;54;21012;-27
2022/09/15 06:42:10;;;;;;;11.63;10.10;;;24.90;58.60;;;;;;4820558;54;21052;-32
2022/09/15 06:47:14;;;;;;;16.52;10.23;;;24.90;58.60;;;;;;4818496;54;21513;-30
2022/09/15 06:52:15;;;;;;;27.67;14.35;;;24.90;58.70;;;;;;4796350;54;21115;-33
2022/09/15 06:57:19;;;;;;;32.35;17.87;;;24.90;58.70;;;;;;4794057;58;21517;-32
2022/09/15 07:02:20;;;;;;;22.13;14.98;;;24.90;58.80;;;;;;4797322;54;21051;-30
2022/09/15 07:07:21;;;;;;;38.33;19.73;;;24.90;59.20;;;;;;4819108;54;21000;-32
2022/09/15 07:12:22;;;;;;;32.58;20.90;;;24.90;59.00;;;;;;4793949;58;21004;-35
2022/09/15 07:17:22;;;;;;;33.40;18.95;;;24.90;59.10;;;;;;4797720;54;20991;-35
2022/09/15 07:22:24;;;;;;;33.10;20.62;;;24.90;59.40;;;;;;4796226;54;21008;-30
2022/09/15 07:27:30;;;;;;;35.20;24.75;;;24.90;59.40;;;;;;4804590;54;21558;-28
2022/09/15 07:32:32;;;;;;;29.90;19.52;;;24.90;59.60;;;;;;4875679;54;22223;-30
2022/09/15 07:37:32;;;;;;;30.50;19.42;;;24.90;60.30;;;;;;4801535;54;21222;-32
2022/09/15 07:42:33;;;;;;;33.00;18.60;;;24.80;60.50;;;;;;4830683;54;21147;-34
2022/09/15 07:47:34;;;;;;;33.17;16.17;;;24.80;62.50;;;;;;4801717;54;21028;-29
2022/09/15 07:52:37;;;;;;;33.45;19.48;;;24.80;62.10;;;;;;4795258;58;21716;-32
2022/09/15 07:57:38;;;;;;;35.17;19.92;;;24.80;62.70;;;;;;4791854;58;21174;-32
2022/09/15 08:02:39;;;;;;;64.68;38.92;;;24.90;62.00;;;;;;4843774;54;21553;-31
2022/09/15 08:07:40;;;;;;;82.00;49.08;;;24.90;62.40;;;;;;4795578;58;21095;-28
2022/09/15 08:12:41;;;;;;;75.87;45.28;;;24.90;63.10;;;;;;4838765;54;21106;-31
2022/09/15 08:17:42;;;;;;;57.10;35.30;;;24.80;63.90;;;;;;4811205;54;21627;-31
2022/09/15 08:22:44;;;;;;;74.25;41.70;;;24.80;64.40;;;;;;4816407;54;21039;-32
2022/09/15 08:27:45;;;;;;;72.87;40.83;;;24.80;64.60;;;;;;4794828;55;21821;-32
2022/09/15 08:32:46;;;;;;;89.25;51.67;;;24.90;64.10;;;;;;4795169;55;21063;-30
2022/09/15 08:37:47;;;;;;;91.40;55.75;;;24.90;64.20;;;;;;4874111;54;21008;-33
2022/09/15 08:42:51;;;;;;;90.78;54.88;;;24.90;64.30;;;;;;4800463;54;21245;-33
2022/09/15 08:47:57;;;;;;;88.10;49.85;;;24.90;64.90;;;;;;4808389;54;21142;-32
2022/09/15 08:53:22;;;;;;;54.47;32.08;;;24.90;65.00;;;;;;4795230;58;21589;-32
2022/09/15 08:58:33;;;;;;;56.90;33.50;;;24.90;66.10;;;;;;4819092;54;21024;-30
2022/09/15 09:03:52;;;;;;;55.12;32.17;;;25.00;65.50;;;;;;4795513;58;22162;-32
2022/09/15 09:09:21;;;;;;;48.95;29.90;;;25.00;65.60;;;;;;4797992;54;21082;-27
2022/09/15 09:16:09;;;;;;;48.85;29.20;;;25.10;65.10;;;;;;4798523;54;21015;-29
2022/09/15 09:21:28;;;;;;;43.42;27.77;;;25.10;64.80;;;;;;4794644;58;21502;-28
2022/09/15 09:26:32;;;;;;;39.38;24.23;;;25.10;65.50;;;;;;4796202;54;21565;-29
2022/09/15 09:31:36;;;;;;;40.42;25.15;;;25.10;66.10;;;;;;4847965;54;20995;-33
2022/09/15 09:36:37;;;;;;;40.40;24.25;;;25.10;66.60;;;;;;4810089;54;21570;-34
2022/09/15 09:41:39;;;;;;;41.85;25.00;;;25.10;66.60;;;;;;4795975;54;21099;-30
2022/09/15 09:46:41;;;;;;;48.58;27.58;;;25.10;66.80;;;;;;4811862;54;21064;-29
2022/09/15 09:52:45;;;;;;;39.95;26.27;;;25.20;67.20;;;;;;4833926;54;21549;-31
2022/09/15 09:57:45;;;;;;;39.08;24.92;;;25.20;67.50;;;;;;4848605;54;21067;-32
2022/09/15 10:02:46;;;;;;;46.28;28.33;;;25.20;67.10;;;;;;4846462;54;21091;-32
2022/09/15 10:07:47;;;;;;;45.05;30.37;;;25.20;67.40;;;;;;4830308;54;21071;-34
2022/09/15 10:12:53;;;;;;;46.47;29.80;;;25.30;67.40;;;;;;4803352;54;21545;-29
2022/09/15 10:17:55;;;;;;;43.38;30.98;;;25.30;67.60;;;;;;4795457;58;21024;-34
2022/09/15 10:23:23;;;;;;;47.60;31.48;;;25.30;67.60;;;;;;4821374;54;21103;-30
2022/09/15 10:28:25;;;;;;;53.72;34.53;;;25.30;67.90;;;;;;4829790;54;21569;-32
2022/09/15 10:33:46;;;;;;;56.33;36.70;;;25.40;67.90;;;;;;4829117;54;21481;-30
2022/09/15 10:39:57;;;;;;;48.58;34.15;;;25.40;67.60;;;;;;4807843;54;21577;-34
2022/09/15 10:45:49;;;;;;;48.30;29.65;;;25.30;67.40;;;;;;4797670;54;21540;-32
2022/09/15 10:51:29;;;;;;;39.55;27.92;;;25.40;67.20;;;;;;4812283;54;21584;-30
2022/09/15 10:56:39;;;;;;;41.67;31.73;;;25.40;66.90;;;;;;4804728;54;21064;-30
2022/09/15 11:04:47;;;;;;;48.58;34.70;;;25.50;66.90;;;;;;4818568;54;21147;-30
2022/09/15 11:13:22;;;;;;;45.28;32.10;;;25.50;66.60;;;;;;4797514;54;21043;-31
2022/09/15 11:19:26;;;;;;;44.03;32.28;;;25.50;66.30;;;;;;4797180;54;21091;-30
2022/09/15 11:24:57;;;;;;;44.17;31.67;;;25.50;66.10;;;;;;4798795;54;21016;-31
2022/09/15 11:30:22;;;;;;;39.95;30.17;;;25.50;65.90;;;;;;4800702;54;20991;-32
2022/09/15 11:37:23;;;;;;;40.38;29.40;;;25.50;65.80;;;;;;4800351;54;21103;-30
2022/09/15 11:45:02;;;;;;;40.65;29.27;;;25.50;65.60;;;;;;4805813;54;21473;-32
2022/09/15 11:51:20;;;;;;;40.15;29.08;;;25.50;65.40;;;;;;4830962;54;21194;-33
2022/09/15 11:56:33;;;;;;;38.83;27.98;;;25.50;65.30;;;;;;4799114;54;21040;-28
2022/09/15 12:02:01;;;;;;;34.63;28.25;;;25.50;65.10;;;;;;4853953;54;21457;-30
2022/09/15 12:07:22;;;;;;;38.38;28.45;;;25.50;64.90;;;;;;4809966;54;21011;-30
2022/09/15 12:12:23;;;;;;;40.92;28.90;;;25.60;65.30;;;;;;4801054;54;21540;-35
2022/09/15 12:17:39;;;;;;;39.88;28.98;;;25.60;65.20;;;;;;4796912;54;21035;-32
2022/09/15 12:23:10;;;;;;;32.97;25.37;;;25.60;64.80;;;;;;4802024;54;21056;-30
2022/09/15 12:28:39;;;;;;;31.02;23.85;;;25.70;64.40;;;;;;4824263;54;21485;-31
2022/09/15 12:34:35;;;;;;;29.90;22.77;;;25.70;64.20;;;;;;4829666;54;21052;-28
2022/09/15 12:39:46;;;;;;;32.67;23.50;;;25.70;64.40;;;;;;4797409;54;21006;-31
2022/09/15 12:45:55;;;;;;;34.08;24.83;;;25.80;64.20;;;;;;4808188;54;20991;-29
2022/09/15 12:51:03;;;;;;;35.45;27.58;;;25.80;64.00;;;;;;4798511;54;21458;-28
2022/09/15 12:56:09;;;;;;;40.15;29.73;;;25.80;63.90;;;;;;4802910;54;22278;-30
2022/09/15 13:02:28;;;;;;;40.67;29.75;;;25.80;63.50;;;;;;4848654;54;21493;-31
2022/09/15 13:07:34;;;;;;;44.15;32.80;;;25.80;63.40;;;;;;4794324;58;21065;-27
2022/09/15 13:12:40;;;;;;;51.50;38.43;;;25.80;63.20;;;;;;4824596;54;21003;-32
2022/09/15 13:17:45;;;;;;;52.58;36.08;;;25.80;63.00;;;;;;4857850;54;21083;-34
2022/09/15 13:22:55;;;;;;;56.72;41.88;;;25.80;63.20;;;;;;4799468;54;21007;-35
2022/09/15 13:28:01;;;;;;;53.35;40.50;;;25.80;62.90;;;;;;4795280;58;21576;-28
2022/09/15 13:33:49;;;;;;;52.80;40.53;;;25.80;62.80;;;;;;4796057;54;21038;-31
2022/09/15 13:42:35;;;;;;;48.05;38.15;;;25.80;62.80;;;;;;4810171;54;21514;-35
2022/09/15 13:49:08;;;;;;;48.90;38.30;;;25.80;62.80;;;;;;4808848;54;21747;-34
2022/09/15 13:54:20;;;;;;;52.78;39.92;;;25.80;62.90;;;;;;4807877;54;21055;-29
2022/09/15 13:59:28;;;;;;;54.22;40.00;;;25.80;62.60;;;;;;4804102;54;21032;-29
2022/09/15 14:04:30;;;;;;;65.45;46.67;;;25.80;62.00;;;;;;4808070;54;21008;-31
2022/09/15 14:09:46;;;;;;;64.47;48.72;;;25.80;61.50;;;;;;4795211;58;21028;-31
2022/09/15 14:14:54;;;;;;;84.03;58.58;;;25.80;61.20;;;;;;4797361;54;22573;-29
2022/09/15 14:19:57;;;;;;;85.80;62.50;;;25.80;60.80;;;;;;4797422;54;21474;-28
2022/09/15 14:25:07;;;;;;;83.32;64.32;;;25.80;60.00;;;;;;4796738;54;21506;-32
2022/09/15 14:30:20;;;;;;;85.00;63.10;;;25.80;59.80;;;;;;4796678;54;21044;-32
2022/09/15 14:35:30;;;;;;;90.32;66.22;;;25.90;59.40;;;;;;4813212;54;21036;-29
2022/09/15 14:40:34;;;;;;;85.07;64.78;;;25.90;59.40;;;;;;4858751;54;21537;-31
2022/09/15 14:45:40;;;;;;;80.03;59.60;;;25.80;59.90;;;;;;4820078;54;21007;-28
2022/09/15 14:50:43;;;;;;;78.73;60.23;;;25.80;60.00;;;;;;4812492;54;21019;-29
2022/09/15 14:56:10;;;;;;;84.40;60.88;;;25.70;60.20;;;;;;4802269;54;21039;-30
2022/09/15 15:01:24;;;;;;;76.28;60.30;;;25.70;60.30;;;;;;4802181;54;21043;-29
2022/09/15 15:06:34;;;;;;;77.43;58.25;;;25.70;60.50;;;;;;4796498;54;20983;-28
2022/09/15 15:11:38;;;;;;;76.05;57.38;;;25.60;60.60;;;;;;4835291;54;21039;-29
2022/09/15 15:16:57;;;;;;;74.28;56.00;;;25.60;60.70;;;;;;4828679;54;21023;-34
2022/09/15 15:22:18;;;;;;;72.35;54.88;;;25.60;60.80;;;;;;4821322;54;21087;-28
2022/09/15 15:27:38;;;;;;;72.07;56.22;;;25.60;60.90;;;;;;4804999;54;21048;-27
2022/09/15 15:32:42;;;;;;;70.90;54.58;;;25.50;60.90;;;;;;4816810;54;20988;-27
2022/09/15 15:37:43;;;;;;;67.53;53.87;;;25.50;61.00;;;;;;4810415;54;21130;-28
2022/09/15 15:43:04;;;;;;;68.37;53.05;;;25.50;61.10;;;;;;4813030;54;21063;-27
2022/09/15 15:48:07;;;;;;;67.20;53.47;;;25.50;61.10;;;;;;4804113;54;21107;-31
2022/09/15 15:53:08;;;;;;;64.07;51.97;;;25.50;61.20;;;;;;4825343;54;21182;-27
2022/09/15 15:58:13;;;;;;;64.25;52.20;;;25.50;61.20;;;;;;4843715;54;21019;-29
2022/09/15 16:03:15;;;;;;;64.53;49.78;;;25.50;61.20;;;;;;4801829;54;21008;-27
2022/09/15 16:08:40;;;;;;;64.82;50.25;;;25.50;61.30;;;;;;4812105;54;21482;-29
2022/09/15 16:13:41;;;;;;;63.10;52.30;;;25.50;61.30;;;;;;4812496;54;21020;-30
2022/09/15 16:18:42;;;;;;;61.63;49.00;;;25.50;61.30;;;;;;4805604;54;21557;-28
2022/09/15 16:23:44;;;;;;;63.10;49.45;;;25.50;61.40;;;;;;4795489;58;21008;-31
2022/09/15 16:28:44;;;;;;;59.15;48.55;;;25.50;61.40;;;;;;4803690;54;21027;-26
2022/09/15 16:33:45;;;;;;;61.42;49.33;;;25.40;61.40;;;;;;4806285;54;21470;-32
2022/09/15 16:38:46;;;;;;;60.03;47.70;;;25.40;61.40;;;;;;4798449;54;21004;-30
2022/09/15 16:43:47;;;;;;;58.90;48.55;;;25.40;61.40;;;;;;4807210;54;21035;-29
2022/09/15 16:48:48;;;;;;;57.50;46.65;;;25.40;61.40;;;;;;4810430;54;21482;-30
2022/09/15 16:53:50;;;;;;;57.25;47.13;;;25.40;62.00;;;;;;4798256;54;21020;-28
2022/09/15 16:58:52;;;;;;;58.95;49.10;;;25.40;61.40;;;;;;4813920;54;21743;-30
2022/09/15 17:03:53;;;;;;;56.08;47.15;;;25.40;61.50;;;;;;4794965;58;22166;-29
2022/09/15 17:08:54;;;;;;;56.65;47.97;;;25.40;61.50;;;;;;4815252;54;20992;-27
2022/09/15 17:13:55;;;;;;;54.50;46.05;;;25.40;61.50;;;;;;4817125;54;21541;-28
2022/09/15 17:18:56;;;;;;;57.90;46.78;;;25.40;61.50;;;;;;4794704;58;21079;-29
2022/09/15 17:23:57;;;;;;;58.10;45.65;;;25.40;61.50;;;;;;4811486;54;21568;-27
2022/09/15 17:28:58;;;;;;;54.53;45.70;;;25.40;61.50;;;;;;4827135;54;21573;-31
2022/09/15 17:33:59;;;;;;;53.65;45.05;;;25.40;61.50;;;;;;4795833;58;21484;-32
2022/09/15 17:39:00;;;;;;;54.47;44.47;;;25.30;62.10;;;;;;4794013;58;21494;-27
2022/09/15 17:44:02;;;;;;;54.53;43.63;;;25.40;61.50;;;;;;4819120;54;21059;-29
2022/09/15 17:49:02;;;;;;;52.58;44.50;;;25.40;61.50;;;;;;4809555;54;21577;-29
2022/09/15 17:54:05;;;;;;;52.38;44.35;;;25.30;61.40;;;;;;4794626;58;21056;-29
2022/09/15 17:59:06;;;;;;;51.42;43.60;;;25.40;61.50;;;;;;4819537;54;21502;-32
2022/09/15 18:04:10;;;;;;;52.22;43.20;;;25.40;62.20;;;;;;4812051;54;21027;-29
2022/09/15 18:09:10;;;;;;;52.38;42.70;;;25.40;61.50;;;;;;4848677;54;21107;-31
2022/09/15 18:14:11;;;;;;;47.58;41.85;;;25.40;61.50;;;;;;4800346;54;21048;-31
2022/09/15 18:19:12;;;;;;;50.40;42.60;;;25.40;61.60;;;;;;4801040;54;21023;-28
2022/09/15 18:24:13;;;;;;;49.80;40.90;;;25.40;61.60;;;;;;4810387;54;21015;-30
2022/09/15 18:29:14;;;;;;;47.33;40.63;;;25.30;61.50;;;;;;4826354;54;21566;-27
2022/09/15 18:34:15;;;;;;;45.30;39.50;;;25.40;61.70;;;;;;4815707;54;21047;-29
2022/09/15 18:39:16;;;;;;;47.83;40.67;;;25.30;61.60;;;;;;4794284;58;21027;-28
2022/09/15 18:44:17;;;;;;;46.15;39.17;;;25.30;61.50;;;;;;4813361;54;21040;-31
2022/09/15 18:49:17;;;;;;;51.08;41.63;;;25.30;61.60;;;;;;4795684;58;21015;-30
2022/09/15 18:54:18;;;;;;;45.83;38.80;;;25.30;61.60;;;;;;4796931;54;21119;-31
2022/09/15 18:59:19;;;;;;;44.97;38.47;;;25.30;61.50;;;;;;4802670;54;21505;-37
2022/09/15 19:04:20;;;;;;;46.10;38.65;;;25.30;61.60;;;;;;4814103;54;21080;-29
2022/09/15 19:09:21;;;;;;;43.75;38.40;;;25.30;61.60;;;;;;4795113;58;21031;-28
2022/09/15 19:14:22;;;;;;;44.78;37.45;;;25.30;61.60;;;;;;4843049;54;21055;-26
2022/09/15 19:19:23;;;;;;;43.78;37.92;;;25.30;61.60;;;;;;4807222;54;21012;-28
2022/09/15 19:24:30;;;;;;;43.45;37.58;;;25.30;62.30;;;;;;4836624;54;21004;-30
2022/09/15 19:29:33;;;;;;;43.78;36.75;;;25.30;61.60;;;;;;4816525;54;21071;-30
2022/09/15 19:34:35;;;;;;;43.15;35.97;;;25.30;61.60;;;;;;4819192;54;21506;-27
2022/09/15 19:39:38;;;;;;;43.35;35.53;;;25.30;61.60;;;;;;4815975;54;21533;-28
2022/09/15 19:44:40;;;;;;;46.88;37.35;;;25.30;61.60;;;;;;4835020;54;21012;-28
2022/09/15 19:49:40;;;;;;;43.85;35.53;;;25.30;61.70;;;;;;4795756;58;21870;-29
2022/09/15 19:54:41;;;;;;;41.92;35.17;;;25.30;61.70;;;;;;4813791;54;21068;-33
2022/09/15 19:59:43;;;;;;;43.42;34.95;;;25.30;61.70;;;;;;4796712;54;21015;-31
2022/09/15 20:04:44;;;;;;;43.03;33.70;;;25.30;61.80;;;;;;4858367;54;22338;-33
2022/09/15 20:09:46;;;;;;;39.70;32.58;;;25.30;61.80;;;;;;4814254;54;21025;-32
2022/09/15 20:14:47;;;;;;;40.28;33.00;;;25.30;61.80;;;;;;4795563;58;21087;-32
2022/09/15 20:19:47;;;;;;;39.05;32.88;;;25.30;61.80;;;;;;4795252;58;21681;-32
2022/09/15 20:24:49;;;;;;;37.67;32.83;;;25.30;62.30;;;;;;4813907;54;21119;-27
2022/09/15 20:29:50;;;;;;;38.00;31.05;;;25.20;61.80;;;;;;4796091;58;21695;-30
2022/09/15 20:34:51;;;;;;;38.92;30.85;;;25.30;61.90;;;;;;4813020;54;21020;-32
2022/09/15 20:39:52;;;;;;;36.30;31.12;;;25.30;61.90;;;;;;4803577;54;21876;-31
2022/09/15 20:44:53;;;;;;;36.42;30.20;;;25.20;61.90;;;;;;4795817;58;21970;-32
2022/09/15 20:49:54;;;;;;;36.35;30.50;;;25.20;61.90;;;;;;4798932;54;21058;-30
2022/09/15 20:54:55;;;;;;;34.03;29.27;;;25.20;61.90;;;;;;4806035;54;21044;-32
2022/09/15 20:59:56;;;;;;;35.28;28.95;;;25.20;61.90;;;;;;4822505;54;22474;-30
2022/09/15 21:04:57;;;;;;;33.88;28.90;;;25.20;62.00;;;;;;4839970;54;21005;-30
2022/09/15 21:09:57;;;;;;;33.63;29.20;;;25.20;62.00;;;;;;4820864;54;21016;-24
2022/09/15 21:14:58;;;;;;;37.28;29.55;;;25.20;62.00;;;;;;4816003;54;21004;-32
2022/09/15 21:19:59;;;;;;;33.78;28.42;;;25.20;62.00;;;;;;4807293;54;21016;-29
2022/09/15 21:25:00;;;;;;;33.88;28.00;;;25.20;62.00;;;;;;4806363;54;20996;-26
2022/09/15 21:30:00;;;;;;;33.63;27.02;;;25.20;62.00;;;;;;4818264;54;21482;-26
2022/09/15 21:35:01;;;;;;;31.75;27.50;;;25.20;62.10;;;;;;4799507;54;21482;-30
2022/09/15 21:40:03;;;;;;;34.17;26.60;;;25.20;62.20;;;;;;4812751;54;21024;-27
2022/09/15 21:45:05;;;;;;;31.12;26.02;;;25.20;62.20;;;;;;4802253;54;21012;-33
2022/09/15 21:50:07;;;;;;;29.98;25.70;;;25.20;62.20;;;;;;4891832;54;21547;-26
2022/09/15 21:55:11;;;;;;;31.77;25.37;;;25.20;62.20;;;;;;4813883;54;20993;-29
2022/09/15 22:00:13;;;;;;;32.28;26.65;;;25.20;62.20;;;;;;4861183;54;20980;-32
2022/09/15 22:05:14;;;;;;;30.65;26.40;;;25.20;62.30;;;;;;4806338;54;21003;-32
2022/09/15 22:10:15;;;;;;;32.38;25.50;;;25.20;62.90;;;;;;4846648;54;21012;-29
2022/09/15 22:15:16;;;;;;;29.42;24.63;;;25.20;62.60;;;;;;4825589;54;21004;-29
2022/09/15 22:20:17;;;;;;;28.33;24.23;;;25.20;62.30;;;;;;4832846;54;21533;-30
2022/09/15 22:25:18;;;;;;;31.85;24.98;;;25.20;62.30;;;;;;4808977;54;21048;-33
2022/09/15 22:30:18;;;;;;;28.87;23.85;;;25.20;62.30;;;;;;4832862;54;21012;-33
2022/09/15 22:35:19;;;;;;;30.40;24.05;;;25.20;63.00;;;;;;4795367;58;21052;-31
2022/09/15 22:40:20;;;;;;;29.10;23.87;;;25.20;62.40;;;;;;4821486;54;21063;-27
2022/09/15 22:45:21;;;;;;;27.23;23.15;;;25.20;62.30;;;;;;4811276;54;21040;-30
2022/09/15 22:50:22;;;;;;;28.52;23.85;;;25.20;62.40;;;;;;4795170;58;21537;-32
2022/09/15 22:55:22;;;;;;;28.30;24.17;;;25.20;63.00;;;;;;4794311;58;21071;-26
2022/09/15 23:00:23;;;;;;;27.13;22.45;;;25.20;62.50;;;;;;4812939;54;21106;-27
2022/09/15 23:05:24;;;;;;;28.52;23.85;;;25.20;62.40;;;;;;4816945;54;22107;-29
2022/09/15 23:10:27;;;;;;;27.52;22.55;;;25.20;62.40;;;;;;4844865;54;21040;-27
2022/09/15 23:15:27;;;;;;;26.27;23.33;;;25.20;62.40;;;;;;4818347;54;21537;-30
2022/09/15 23:20:28;;;;;;;26.10;22.20;;;25.20;62.90;;;;;;4832236;54;21099;-31
2022/09/15 23:25:29;;;;;;;27.15;22.58;;;25.20;62.50;;;;;;4825929;54;21051;-30
2022/09/15 23:30:30;;;;;;;27.27;21.95;;;25.20;62.50;;;;;;4795427;58;21012;-35
2022/09/15 23:35:31;;;;;;;26.00;22.23;;;25.20;62.50;;;;;;4831464;54;21039;-30
2022/09/15 23:40:31;;;;;;;25.55;21.77;;;25.20;62.50;;;;;;4813806;54;21051;-28
2022/09/15 23:45:32;;;;;;;24.48;20.83;;;25.20;62.50;;;;;;4795733;54;21011;-29
2022/09/15 23:50:34;;;;;;;25.65;21.17;;;25.20;62.60;;;;;;4848749;54;21053;-35
2022/09/15 23:55:36;;;;;;;24.90;20.73;;;25.20;62.50;;;;;;4832046;54;21123;-27
